Time;durP1;ratioP1;P1;durP2;ratioP2;P2;SDS_P1;SDS_P2;PMS_P1;PMS_P2;Temp;Humidity;BMP_temperature;BMP_pressure;BME280_temperature;BME280_humidity;BME280_pressure;Samples;Min_cycle;Max_cycle;Signal;HPM_P1;HPM_P2
2022/10/07 00:01:26;;;;;;;16.00;4.07;;;9.40;99.90;;;;;;5046636;28;20102;-61
2022/10/07 00:03:52;;;;;;;14.07;4.03;;;9.30;99.90;;;;;;5048022;28;20045;-61
2022/10/07 00:06:20;;;;;;;13.45;4.90;;;9.30;99.90;;;;;;5044135;28;20064;-61
2022/10/07 00:08:51;;;;;;;12.45;4.00;;;9.30;99.90;;;;;;5048841;28;20495;-61
2022/10/07 00:11:23;;;;;;;16.20;4.32;;;9.30;99.90;;;;;;5053201;28;20163;-62
2022/10/07 00:13:52;;;;;;;9.88;4.00;;;9.30;99.90;;;;;;5057854;28;20487;-61
2022/10/07 00:16:23;;;;;;;15.20;3.70;;;9.30;99.90;;;;;;5061983;28;20539;-61
2022/10/07 00:18:56;;;;;;;11.60;3.97;;;9.30;99.90;;;;;;5044472;28;20057;-61
2022/10/07 00:21:23;;;;;;;13.60;4.07;;;9.30;99.90;;;;;;5048534;28;20045;-61
2022/10/07 00:23:49;;;;;;;13.80;4.25;;;9.20;99.90;;;;;;5045394;28;20115;-63
2022/10/07 00:26:18;;;;;;;13.35;5.13;;;9.30;99.90;;;;;;5042634;28;20067;-61
2022/10/07 00:28:45;;;;;;;12.45;4.13;;;9.30;99.90;;;;;;5043249;28;20399;-61
2022/10/07 00:31:21;;;;;;;18.73;4.75;;;9.30;99.90;;;;;;5042917;28;20471;-62
2022/10/07 00:33:48;;;;;;;16.55;4.95;;;9.30;99.90;;;;;;5035845;28;20048;-61
2022/10/07 00:36:22;;;;;;;17.10;5.53;;;9.30;99.90;;;;;;5061969;28;20079;-61
2022/10/07 00:38:57;;;;;;;14.77;4.45;;;9.20;99.90;;;;;;5063762;28;20173;-61
2022/10/07 00:41:26;;;;;;;14.98;4.90;;;9.30;99.90;;;;;;5062796;28;20269;-60
2022/10/07 00:43:52;;;;;;;16.02;4.78;;;9.30;99.90;;;;;;5047127;28;20056;-60
2022/10/07 00:46:38;;;;;;;13.20;4.85;;;9.30;99.90;;;;;;5042865;28;20572;-61
2022/10/07 00:49:12;;;;;;;20.00;6.80;;;9.30;99.90;;;;;;5042995;28;20092;-61
2022/10/07 00:51:39;;;;;;;10.88;4.95;;;9.20;99.90;;;;;;5042121;28;20051;-59
2022/10/07 00:54:13;;;;;;;11.18;5.25;;;9.20;99.90;;;;;;5042942;28;20066;-62
2022/10/07 00:56:41;;;;;;;18.52;5.32;;;9.20;99.90;;;;;;5051663;28;20127;-61
2022/10/07 00:59:07;;;;;;;16.42;5.80;;;9.20;99.90;;;;;;5059736;28;20071;-61
2022/10/07 01:01:33;;;;;;;17.05;6.97;;;9.20;99.90;;;;;;5026807;28;20323;-61
2022/10/07 01:04:00;;;;;;;16.23;5.22;;;9.10;99.90;;;;;;5046602;28;20048;-61
2022/10/07 01:06:25;;;;;;;13.95;4.93;;;9.10;99.90;;;;;;5061771;28;20053;-59
2022/10/07 01:08:52;;;;;;;10.77;4.78;;;9.10;99.90;;;;;;5033188;28;20387;-60
2022/10/07 01:11:40;;;;;;;15.32;4.90;;;9.00;99.90;;;;;;5042038;28;20052;-61
2022/10/07 01:14:06;;;;;;;12.50;5.20;;;8.90;99.90;;;;;;5041607;28;20087;-61
2022/10/07 01:16:54;;;;;;;28.42;6.45;;;8.90;99.90;;;;;;5040638;28;20465;-61
2022/10/07 01:20:03;;;;;;;14.15;5.20;;;8.90;99.90;;;;;;5042027;28;20091;-61
2022/10/07 01:22:53;;;;;;;17.33;4.93;;;8.90;99.90;;;;;;5041658;28;20087;-61
2022/10/07 01:25:41;;;;;;;16.00;5.07;;;8.80;99.90;;;;;;5046303;28;20093;-61
2022/10/07 01:28:20;;;;;;;11.80;5.10;;;8.80;99.90;;;;;;5053241;28;20548;-61
2022/10/07 01:30:51;;;;;;;13.48;5.00;;;8.80;99.90;;;;;;5042883;28;20049;-61
2022/10/07 01:33:26;;;;;;;15.90;5.05;;;8.80;99.90;;;;;;5041718;28;20099;-61
2022/10/07 01:35:55;;;;;;;15.30;5.38;;;8.70;99.90;;;;;;5047388;28;20076;-61
2022/10/07 01:38:25;;;;;;;17.77;6.07;;;8.70;99.90;;;;;;5064259;28;20163;-62
2022/10/07 01:41:08;;;;;;;14.05;5.90;;;8.70;99.90;;;;;;5044310;28;20049;-61
2022/10/07 01:43:36;;;;;;;16.73;5.93;;;8.70;99.90;;;;;;5042100;28;20044;-64
2022/10/07 01:46:05;;;;;;;17.42;5.88;;;8.70;99.90;;;;;;5041962;28;20044;-61
2022/10/07 01:48:31;;;;;;;16.67;5.40;;;8.70;99.90;;;;;;5053501;28;20079;-62
2022/10/07 01:50:59;;;;;;;17.85;5.85;;;8.60;99.90;;;;;;5041763;28;20052;-61
2022/10/07 01:53:43;;;;;;;12.95;4.78;;;8.60;99.90;;;;;;5041311;28;20070;-61
2022/10/07 01:56:33;;;;;;;14.60;5.30;;;8.60;99.90;;;;;;5043335;28;20052;-59
2022/10/07 01:58:59;;;;;;;15.40;5.50;;;8.60;99.90;;;;;;5051131;28;20156;-63
2022/10/07 02:01:36;;;;;;;12.52;4.95;;;8.50;99.90;;;;;;5041495;28;20652;-61
2022/10/07 02:04:14;;;;;;;10.90;5.22;;;8.50;99.90;;;;;;5042150;28;20450;-61
2022/10/07 02:06:52;;;;;;;16.92;5.30;;;8.40;99.90;;;;;;5040685;28;20048;-61
2022/10/07 02:09:29;;;;;;;12.07;5.25;;;8.40;99.90;;;;;;5042920;28;20049;-61
2022/10/07 02:12:12;;;;;;;16.15;5.45;;;8.40;99.90;;;;;;5042300;28;20475;-61
2022/10/07 02:14:47;;;;;;;14.27;5.97;;;8.40;99.90;;;;;;5041234;28;20045;-61
2022/10/07 02:17:18;;;;;;;15.15;5.57;;;8.40;99.90;;;;;;5041165;28;20065;-60
2022/10/07 02:19:48;;;;;;;14.80;5.75;;;8.50;99.90;;;;;;5041294;28;20048;-60
2022/10/07 02:22:17;;;;;;;17.90;6.32;;;8.40;99.90;;;;;;5040829;28;20105;-61
2022/10/07 02:24:46;;;;;;;12.40;5.57;;;8.50;99.90;;;;;;5040301;28;20053;-61
2022/10/07 02:27:15;;;;;;;19.60;5.50;;;8.40;99.90;;;;;;5041393;28;20060;-61
2022/10/07 02:29:43;;;;;;;14.65;6.35;;;8.40;99.90;;;;;;5041272;28;20103;-61
2022/10/07 02:32:17;;;;;;;19.90;6.10;;;8.40;99.90;;;;;;5041610;28;20057;-61
2022/10/07 02:34:51;;;;;;;16.08;5.50;;;8.40;99.90;;;;;;5040648;28;20045;-61
2022/10/07 02:37:25;;;;;;;19.92;5.90;;;8.40;99.90;;;;;;5041299;28;20132;-60
2022/10/07 02:39:52;;;;;;;20.42;6.35;;;8.40;99.90;;;;;;5023101;28;20106;-60
2022/10/07 02:42:32;;;;;;;17.02;6.35;;;8.50;99.90;;;;;;5027092;28;20462;-61
2022/10/07 02:45:20;;;;;;;22.20;6.20;;;8.60;99.90;;;;;;5041340;28;20053;-61
2022/10/07 02:47:56;;;;;;;22.45;5.90;;;8.60;99.90;;;;;;5023844;28;20053;-61
2022/10/07 02:50:27;;;;;;;12.95;6.57;;;8.70;99.90;;;;;;5035674;28;20063;-61
2022/10/07 02:52:55;;;;;;;21.80;6.22;;;8.70;99.90;;;;;;5041881;28;20061;-60
2022/10/07 02:55:24;;;;;;;14.95;5.72;;;8.70;99.90;;;;;;5049224;28;20117;-60
2022/10/07 02:57:55;;;;;;;22.75;6.72;;;8.70;99.90;;;;;;5011874;28;20191;-63
2022/10/07 03:00:21;;;;;;;14.43;6.00;;;8.70;99.90;;;;;;5042239;28;20411;-60
2022/10/07 03:02:57;;;;;;;21.60;6.15;;;8.70;99.90;;;;;;5035135;28;20055;-61
2022/10/07 03:05:24;;;;;;;19.08;5.70;;;8.70;99.90;;;;;;5052336;28;20128;-60
2022/10/07 03:08:04;;;;;;;20.50;6.47;;;8.70;99.90;;;;;;5041264;28;20128;-59
2022/10/07 03:10:29;;;;;;;16.23;5.90;;;8.70;99.90;;;;;;5011598;28;20056;-61
2022/10/07 03:12:56;;;;;;;26.73;6.28;;;8.70;99.90;;;;;;5039697;28;20162;-61
2022/10/07 03:15:22;;;;;;;19.35;5.90;;;8.70;99.90;;;;;;5029967;28;20063;-60
2022/10/07 03:17:48;;;;;;;13.73;5.20;;;8.70;99.90;;;;;;5022159;28;20396;-61
2022/10/07 03:20:14;;;;;;;14.60;5.32;;;8.70;99.90;;;;;;5040189;28;20094;-60
2022/10/07 03:22:43;;;;;;;15.38;5.93;;;8.70;99.90;;;;;;5043953;28;20048;-61
2022/10/07 03:25:13;;;;;;;21.02;7.30;;;8.70;99.90;;;;;;5059094;28;20063;-61
2022/10/07 03:27:41;;;;;;;22.25;7.50;;;8.80;99.90;;;;;;5060201;28;20594;-61
2022/10/07 03:30:07;;;;;;;23.50;5.97;;;8.80;99.90;;;;;;5049011;28;20045;-61
2022/10/07 03:32:33;;;;;;;14.65;5.85;;;8.80;99.90;;;;;;5051024;28;20067;-60
2022/10/07 03:34:59;;;;;;;15.60;6.22;;;8.80;99.90;;;;;;5047399;28;20586;-61
2022/10/07 03:37:25;;;;;;;19.83;6.32;;;8.80;99.90;;;;;;5059166;28;20052;-61
2022/10/07 03:39:52;;;;;;;20.55;7.82;;;8.90;99.90;;;;;;5060461;28;20040;-61
2022/10/07 03:42:19;;;;;;;22.95;7.15;;;8.90;99.90;;;;;;5057685;28;20044;-60
2022/10/07 03:44:48;;;;;;;26.38;6.57;;;8.90;99.90;;;;;;5059896;28;20137;-61
2022/10/07 03:47:17;;;;;;;23.33;7.28;;;8.90;99.90;;;;;;5049199;28;20072;-60
2022/10/07 03:49:43;;;;;;;23.45;7.28;;;8.90;99.90;;;;;;5039660;28;20492;-61
2022/10/07 03:52:09;;;;;;;21.83;7.70;;;8.90;99.90;;;;;;5040475;28;20056;-61
2022/10/07 03:54:35;;;;;;;22.83;7.05;;;8.90;99.90;;;;;;5041696;28;20045;-62
2022/10/07 03:57:01;;;;;;;17.40;6.80;;;8.90;99.90;;;;;;5044921;28;20040;-60
2022/10/07 03:59:26;;;;;;;19.70;6.40;;;8.90;99.90;;;;;;5047097;28;20045;-61
2022/10/07 04:01:52;;;;;;;24.55;6.80;;;9.00;99.90;;;;;;5040054;28;20378;-60
2022/10/07 04:04:19;;;;;;;17.77;6.00;;;8.90;99.90;;;;;;5028946;28;20065;-59
2022/10/07 04:06:45;;;;;;;19.75;6.25;;;8.90;99.90;;;;;;5040954;28;20056;-60
2022/10/07 04:09:14;;;;;;;19.67;6.82;;;8.90;99.90;;;;;;5041208;28;20041;-61
2022/10/07 04:11:40;;;;;;;21.27;7.30;;;9.00;99.90;;;;;;5046211;28;20087;-61
2022/10/07 04:14:06;;;;;;;24.10;6.93;;;8.90;99.90;;;;;;5047266;28;20055;-60
2022/10/07 04:16:32;;;;;;;23.40;8.15;;;9.00;99.90;;;;;;5046361;28;20049;-58
2022/10/07 04:18:58;;;;;;;25.15;7.13;;;9.00;99.90;;;;;;5044252;28;20049;-61
2022/10/07 04:21:24;;;;;;;21.60;7.43;;;9.00;99.90;;;;;;5043213;28;20081;-61
2022/10/07 04:23:52;;;;;;;26.13;6.68;;;9.00;99.90;;;;;;5042019;28;20122;-61
2022/10/07 04:26:18;;;;;;;19.77;6.53;;;9.00;99.90;;;;;;5044803;28;20055;-61
2022/10/07 04:28:44;;;;;;;22.10;6.40;;;9.00;99.90;;;;;;5043590;28;20048;-61
2022/10/07 04:31:10;;;;;;;22.50;7.53;;;9.00;99.90;;;;;;5043626;28;20127;-61
2022/10/07 04:33:40;;;;;;;23.52;6.63;;;9.00;99.90;;;;;;5036883;28;20052;-60
2022/10/07 04:36:09;;;;;;;21.52;7.00;;;9.00;99.90;;;;;;5043936;28;20076;-60
2022/10/07 04:38:35;;;;;;;26.00;7.20;;;9.00;99.90;;;;;;5043037;28;20491;-61
2022/10/07 04:41:06;;;;;;;18.38;7.07;;;9.00;99.90;;;;;;5042419;28;20048;-58
2022/10/07 04:43:32;;;;;;;26.08;8.55;;;9.00;99.90;;;;;;5043214;28;20049;-61
2022/10/07 04:46:13;;;;;;;28.85;7.65;;;9.00;99.90;;;;;;5025425;28;20049;-60
2022/10/07 04:48:42;;;;;;;21.48;7.07;;;9.00;99.90;;;;;;5043106;28;20126;-60
2022/10/07 04:51:08;;;;;;;26.85;7.95;;;8.90;99.90;;;;;;5053549;28;20044;-60
2022/10/07 04:53:35;;;;;;;22.73;7.50;;;8.90;99.90;;;;;;5062050;28;20044;-60
2022/10/07 04:56:02;;;;;;;24.63;7.25;;;8.90;99.90;;;;;;5045352;28;20345;-60
2022/10/07 04:58:29;;;;;;;21.80;7.75;;;8.90;99.90;;;;;;5046226;28;20056;-60
2022/10/07 05:00:57;;;;;;;18.63;7.78;;;8.90;99.90;;;;;;5043369;28;20118;-60
2022/10/07 05:03:26;;;;;;;20.48;8.13;;;8.90;99.90;;;;;;5044752;28;20045;-61
2022/10/07 05:05:55;;;;;;;20.60;8.30;;;8.90;99.90;;;;;;5042468;28;20421;-59
2022/10/07 05:08:23;;;;;;;21.55;7.68;;;8.90;99.90;;;;;;5053908;28;20049;-60
2022/10/07 05:10:54;;;;;;;22.83;7.95;;;8.90;99.90;;;;;;5062481;28;20787;-60
2022/10/07 05:13:21;;;;;;;26.40;8.05;;;8.90;99.90;;;;;;5054185;28;20403;-61
2022/10/07 05:15:58;;;;;;;20.23;8.07;;;8.80;99.90;;;;;;5043864;28;20053;-61
2022/10/07 05:18:25;;;;;;;24.73;8.63;;;8.90;99.90;;;;;;5062705;28;20507;-59
2022/10/07 05:20:51;;;;;;;26.60;8.25;;;8.90;99.90;;;;;;5045888;28;20064;-60
2022/10/07 05:23:20;;;;;;;25.70;8.35;;;8.90;99.90;;;;;;5052052;28;20048;-60
2022/10/07 05:25:46;;;;;;;20.83;8.00;;;8.90;99.90;;;;;;5045926;28;20052;-60
2022/10/07 05:28:13;;;;;;;24.63;9.70;;;8.90;99.90;;;;;;5046549;28;20151;-61
2022/10/07 05:30:40;;;;;;;19.05;7.95;;;8.90;99.90;;;;;;5045168;28;20060;-62
2022/10/07 05:33:08;;;;;;;25.35;9.07;;;8.90;99.90;;;;;;5041578;28;20056;-61
2022/10/07 05:35:34;;;;;;;23.88;9.23;;;8.90;99.90;;;;;;5041906;28;20056;-61
2022/10/07 05:38:00;;;;;;;25.83;8.50;;;8.90;99.90;;;;;;5042796;28;20033;-60
2022/10/07 05:40:27;;;;;;;24.33;8.93;;;8.90;99.90;;;;;;5042277;28;20048;-60
2022/10/07 05:42:53;;;;;;;26.33;9.00;;;8.90;99.90;;;;;;5041884;28;20053;-61
2022/10/07 05:45:18;;;;;;;25.35;9.13;;;8.90;99.90;;;;;;5042862;28;20049;-61
2022/10/07 05:47:46;;;;;;;25.48;8.98;;;8.90;99.90;;;;;;5040821;28;20064;-60
2022/10/07 05:50:12;;;;;;;26.55;9.75;;;8.90;99.90;;;;;;5047168;28;20082;-61
2022/10/07 05:52:38;;;;;;;28.48;10.23;;;9.00;99.90;;;;;;5051144;28;20053;-60
2022/10/07 05:55:04;;;;;;;21.40;8.98;;;9.00;99.90;;;;;;5045564;28;20051;-61
2022/10/07 05:57:30;;;;;;;26.75;8.75;;;9.00;99.90;;;;;;5046917;28;20140;-60
2022/10/07 05:59:57;;;;;;;19.52;8.73;;;9.00;99.90;;;;;;5022675;28;20053;-60
2022/10/07 06:02:24;;;;;;;22.85;10.15;;;9.00;99.90;;;;;;5042411;28;20053;-61
2022/10/07 06:04:49;;;;;;;31.00;10.65;;;9.10;99.90;;;;;;5054245;28;20048;-59
2022/10/07 06:07:16;;;;;;;25.27;10.23;;;9.00;99.90;;;;;;5051858;28;20600;-59
2022/10/07 06:15:12;;;;;;;26.10;10.57;;;9.20;99.90;;;;;;5041131;28;20566;-59
2022/10/07 06:17:43;;;;;;;25.33;10.00;;;9.20;99.90;;;;;;5041551;28;20392;-58
2022/10/07 06:20:13;;;;;;;28.23;10.48;;;9.30;99.90;;;;;;5041937;28;20261;-58
2022/10/07 06:22:39;;;;;;;18.73;8.70;;;9.40;99.90;;;;;;5050734;28;20475;-59
2022/10/07 06:25:10;;;;;;;25.00;9.05;;;9.50;99.90;;;;;;5052524;28;20449;-58
2022/10/07 06:27:36;;;;;;;23.77;9.77;;;9.60;99.90;;;;;;5023379;28;20057;-59
2022/10/07 06:30:02;;;;;;;27.95;8.93;;;9.80;99.90;;;;;;5041726;28;20481;-59
2022/10/07 06:32:29;;;;;;;27.75;9.88;;;9.90;99.90;;;;;;5043407;28;20210;-59
2022/10/07 06:34:55;;;;;;;30.98;9.60;;;10.10;99.90;;;;;;5042050;28;20045;-58
2022/10/07 06:37:21;;;;;;;18.52;7.93;;;10.30;99.90;;;;;;5041279;28;20071;-58
2022/10/07 06:39:47;;;;;;;20.35;8.05;;;10.40;99.90;;;;;;5054729;28;20076;-59
2022/10/07 06:42:13;;;;;;;26.85;8.32;;;10.60;99.90;;;;;;5043874;28;20056;-59
2022/10/07 06:44:39;;;;;;;23.08;8.10;;;10.70;99.90;;;;;;5059471;28;20135;-58
2022/10/07 06:47:04;;;;;;;22.88;7.85;;;10.80;99.90;;;;;;5055166;28;20052;-59
2022/10/07 06:49:30;;;;;;;27.70;9.25;;;10.90;99.90;;;;;;5045753;28;20415;-58
2022/10/07 06:51:56;;;;;;;22.85;7.65;;;11.00;99.90;;;;;;5047433;28;20056;-59
2022/10/07 06:54:22;;;;;;;23.10;8.65;;;11.00;99.90;;;;;;5043436;28;20048;-58
2022/10/07 06:56:48;;;;;;;17.40;7.43;;;11.10;99.90;;;;;;5028351;28;20049;-59
2022/10/07 06:59:13;;;;;;;16.90;6.97;;;11.20;99.90;;;;;;5043314;28;20052;-59
2022/10/07 07:01:39;;;;;;;18.58;6.75;;;11.30;99.90;;;;;;5046803;28;20164;-57
2022/10/07 07:04:05;;;;;;;18.02;6.28;;;11.30;99.90;;;;;;5048186;28;20075;-59
2022/10/07 07:06:35;;;;;;;20.63;7.13;;;11.20;99.90;;;;;;5045501;28;20120;-59
2022/10/07 07:09:03;;;;;;;18.10;7.55;;;11.20;99.90;;;;;;5047750;28;20132;-59
2022/10/07 07:11:35;;;;;;;19.50;7.75;;;11.10;99.90;;;;;;5047697;28;20048;-59
2022/10/07 07:14:03;;;;;;;18.10;7.00;;;11.20;99.90;;;;;;5048503;28;20087;-60
2022/10/07 07:16:29;;;;;;;19.23;7.15;;;11.20;99.90;;;;;;5048358;28;20102;-59
2022/10/07 07:19:01;;;;;;;18.33;6.43;;;11.40;99.90;;;;;;5032398;28;20391;-59
2022/10/07 07:21:34;;;;;;;20.27;6.35;;;11.40;99.90;;;;;;5049728;28;20484;-59
2022/10/07 07:24:01;;;;;;;18.98;7.03;;;11.50;99.90;;;;;;5041313;28;20186;-59
2022/10/07 07:26:28;;;;;;;19.38;6.05;;;11.70;99.90;;;;;;5023346;28;20434;-59
2022/10/07 07:28:59;;;;;;;20.13;7.10;;;11.70;99.90;;;;;;5039307;28;20049;-59
2022/10/07 07:31:30;;;;;;;18.38;6.25;;;11.80;99.90;;;;;;5039883;28;20408;-60
2022/10/07 07:34:01;;;;;;;15.85;6.30;;;12.00;99.90;;;;;;5040168;28;20402;-60
2022/10/07 07:36:29;;;;;;;19.75;7.95;;;12.10;99.90;;;;;;5047923;28;20048;-60
2022/10/07 07:39:05;;;;;;;17.02;5.97;;;12.20;99.90;;;;;;5022566;28;20556;-60
2022/10/07 07:41:34;;;;;;;18.92;6.32;;;12.30;99.90;;;;;;5040405;28;20052;-60
2022/10/07 07:44:05;;;;;;;19.63;7.20;;;12.30;99.90;;;;;;5021821;28;20072;-60
2022/10/07 07:46:37;;;;;;;14.98;5.25;;;12.40;99.90;;;;;;5042010;28;20056;-60
2022/10/07 07:49:04;;;;;;;15.80;5.40;;;12.40;99.90;;;;;;5052658;28;20059;-60
2022/10/07 07:51:32;;;;;;;18.33;5.45;;;12.50;99.90;;;;;;5073981;28;20056;-60
2022/10/07 07:53:58;;;;;;;17.80;5.80;;;12.60;99.90;;;;;;5056847;28;20104;-59
2022/10/07 07:56:25;;;;;;;16.35;5.63;;;12.70;99.90;;;;;;5036501;28;20163;-60
2022/10/07 07:58:52;;;;;;;20.42;5.68;;;12.70;99.90;;;;;;5054495;28;20125;-61
2022/10/07 08:01:18;;;;;;;22.50;5.50;;;12.70;99.90;;;;;;5057343;28;20036;-60
2022/10/07 08:03:46;;;;;;;18.42;5.35;;;12.80;99.90;;;;;;5068631;28;20040;-60
2022/10/07 08:06:14;;;;;;;14.98;5.68;;;12.90;99.90;;;;;;5065220;28;20045;-59
2022/10/07 08:08:43;;;;;;;18.35;5.78;;;12.90;99.90;;;;;;5047873;28;20096;-59
2022/10/07 08:11:18;;;;;;;15.77;5.00;;;13.10;99.90;;;;;;5047102;28;20820;-58
2022/10/07 08:13:45;;;;;;;17.08;5.07;;;13.10;99.90;;;;;;5055123;28;20526;-60
2022/10/07 08:16:14;;;;;;;19.42;6.53;;;13.20;99.90;;;;;;5054399;28;20049;-59
2022/10/07 08:18:42;;;;;;;16.73;5.47;;;13.20;99.90;;;;;;5057109;28;20049;-60
2022/10/07 08:21:09;;;;;;;18.58;5.47;;;13.20;99.90;;;;;;5043602;28;20132;-60
2022/10/07 08:23:37;;;;;;;18.23;6.53;;;13.00;99.90;;;;;;5042370;28;20084;-59
2022/10/07 08:26:03;;;;;;;15.05;4.95;;;12.80;99.90;;;;;;5044212;28;20041;-60
2022/10/07 08:28:30;;;;;;;18.05;5.50;;;12.90;99.90;;;;;;5046613;28;20635;-60
2022/10/07 08:31:09;;;;;;;15.85;5.32;;;12.90;99.90;;;;;;5044860;28;20041;-60
2022/10/07 08:33:41;;;;;;;16.15;5.25;;;12.90;99.90;;;;;;5056352;28;20060;-60
2022/10/07 08:36:11;;;;;;;17.15;5.50;;;13.00;99.90;;;;;;5042652;28;20145;-60
2022/10/07 08:38:38;;;;;;;18.85;4.78;;;13.00;99.90;;;;;;5045043;28;20062;-59
2022/10/07 10:28:49;;;;;;;22.38;6.57;;;15.40;99.90;;;;;;5013998;28;20049;-60
2022/10/07 10:32:00;;;;;;;11.48;4.50;;;15.50;99.90;;;;;;5003850;28;20050;-61
2022/10/07 10:34:53;;;;;;;18.33;5.15;;;15.70;99.90;;;;;;4856629;29;20136;-61
2022/10/07 10:37:27;;;;;;;16.55;5.82;;;15.80;99.90;;;;;;4834527;29;20523;-60
2022/10/07 10:40:19;;;;;;;19.88;5.43;;;15.70;99.90;;;;;;4859667;29;20084;-61
2022/10/07 10:42:47;;;;;;;16.48;4.70;;;15.80;99.90;;;;;;4859548;29;20072;-61
2022/10/07 10:45:50;;;;;;;13.95;4.57;;;15.80;99.90;;;;;;4863234;29;20053;-61
2022/10/07 10:48:56;;;;;;;17.43;4.67;;;15.80;99.90;;;;;;4832701;29;20050;-60
2022/10/07 10:51:41;;;;;;;14.27;4.25;;;15.90;99.90;;;;;;4790816;29;20564;-61
2022/10/07 10:54:21;;;;;;;15.88;4.57;;;15.90;99.90;;;;;;4785464;29;20055;-61
2022/10/07 10:56:57;;;;;;;17.10;4.68;;;16.00;99.90;;;;;;4800800;29;20051;-60
2022/10/07 11:00:00;;;;;;;14.35;4.20;;;16.00;99.90;;;;;;4798958;29;20073;-61
2022/10/07 11:02:37;;;;;;;14.93;3.77;;;16.10;99.90;;;;;;4798083;29;20106;-59
2022/10/07 11:05:08;;;;;;;12.73;3.90;;;16.20;99.90;;;;;;4820477;29;20100;-61
2022/10/07 11:08:01;;;;;;;15.73;4.55;;;16.20;99.90;;;;;;4801757;29;20065;-61
2022/10/07 11:10:33;;;;;;;13.25;3.58;;;16.30;99.90;;;;;;4820605;29;20407;-63
2022/10/07 11:13:35;;;;;;;16.52;4.50;;;16.40;99.90;;;;;;4913891;29;20539;-62
2022/10/07 11:16:29;;;;;;;12.73;4.00;;;16.50;99.90;;;;;;4912203;29;20075;-63
2022/10/07 11:19:00;;;;;;;14.60;4.00;;;16.70;99.90;;;;;;4916674;29;20055;-60
2022/10/07 11:21:33;;;;;;;20.25;4.45;;;16.80;99.90;;;;;;4896428;28;20063;-62
2022/10/07 11:24:09;;;;;;;21.83;4.45;;;16.80;99.90;;;;;;5008907;28;20061;-62
2022/10/07 11:26:40;;;;;;;17.50;4.13;;;16.80;99.90;;;;;;4982215;28;20065;-62
2022/10/07 11:29:21;;;;;;;14.50;4.35;;;16.90;99.90;;;;;;5028085;28;20533;-62
2022/10/07 11:31:56;;;;;;;12.15;4.63;;;16.90;99.90;;;;;;5054847;28;20052;-62
2022/10/07 11:35:05;;;;;;;18.77;4.80;;;16.90;99.90;;;;;;5061199;28;20044;-62
2022/10/07 11:37:49;;;;;;;18.25;4.43;;;16.90;99.90;;;;;;5045833;28;20057;-62
2022/10/07 11:40:17;;;;;;;18.60;4.30;;;16.80;99.90;;;;;;5052557;28;20414;-63
2022/10/07 11:42:48;;;;;;;13.65;4.50;;;16.60;99.90;;;;;;5055778;28;20060;-62
2022/10/07 11:45:28;;;;;;;13.80;3.75;;;16.40;99.90;;;;;;5046235;28;20045;-60
2022/10/07 11:48:07;;;;;;;18.92;4.72;;;16.40;99.90;;;;;;5050295;28;20087;-61
2022/10/07 11:50:51;;;;;;;18.25;4.40;;;16.40;99.90;;;;;;5056099;28;20457;-62
2022/10/07 11:53:38;;;;;;;13.35;4.30;;;16.40;99.90;;;;;;5053989;28;20132;-63
2022/10/07 11:56:26;;;;;;;17.75;4.10;;;16.40;99.90;;;;;;5045099;28;20056;-61
2022/10/07 11:59:03;;;;;;;14.50;3.75;;;16.60;99.90;;;;;;5047125;28;20045;-61
2022/10/07 12:01:45;;;;;;;18.60;4.50;;;16.70;99.90;;;;;;5048919;28;20570;-61
2022/10/07 12:32:50;;;;;;;14.43;3.97;;;16.50;99.90;;;;;;5057542;27;1262524;-60
2022/10/07 12:35:36;;;;;;;17.10;4.70;;;16.40;99.90;;;;;;5058344;28;20719;-60
2022/10/07 12:38:24;;;;;;;12.25;3.05;;;16.40;99.90;;;;;;5062715;28;20490;-59
2022/10/07 12:41:02;;;;;;;13.50;2.92;;;16.30;99.90;;;;;;5079845;28;20052;-59
2022/10/07 12:43:27;;;;;;;13.23;2.97;;;16.40;99.90;;;;;;5087062;28;20060;-60
2022/10/07 12:46:00;;;;;;;13.95;3.40;;;16.50;99.90;;;;;;5081383;28;20512;-61
2022/10/07 12:48:34;;;;;;;13.27;3.67;;;16.50;99.90;;;;;;5059428;28;20044;-61
2022/10/07 12:51:02;;;;;;;13.48;3.10;;;16.40;99.90;;;;;;5080717;28;20125;-64
2022/10/07 12:53:34;;;;;;;13.20;3.38;;;16.50;99.90;;;;;;5076852;28;20052;-63
2022/10/07 12:56:00;;;;;;;10.25;2.75;;;16.40;99.90;;;;;;5070999;28;20059;-62
2022/10/07 13:02:35;;;;;;;9.48;2.67;;;16.50;99.90;;;;;;5025732;28;20196;-62
2022/10/07 13:05:25;;;;;;;13.88;3.28;;;16.60;99.90;;;;;;5033537;28;20547;-62
2022/10/07 13:08:14;;;;;;;12.23;3.58;;;16.60;99.90;;;;;;5027288;28;20042;-62
2022/10/07 13:11:04;;;;;;;15.27;3.20;;;16.60;99.90;;;;;;5017695;28;20103;-62
2022/10/07 13:13:55;;;;;;;13.02;3.35;;;16.80;99.90;;;;;;5031888;28;20477;-63
2022/10/07 13:16:34;;;;;;;12.52;3.67;;;17.00;99.90;;;;;;5024903;28;20106;-64
2022/10/07 13:19:20;;;;;;;12.55;3.97;;;17.10;99.90;;;;;;5032672;28;20108;-63
2022/10/07 13:22:10;;;;;;;13.85;3.30;;;17.20;99.90;;;;;;5015438;28;20053;-63
2022/10/07 13:24:39;;;;;;;12.55;3.45;;;17.10;99.90;;;;;;5025186;28;20083;-63
2022/10/07 13:27:09;;;;;;;14.05;3.63;;;16.90;99.90;;;;;;5026015;28;20049;-64
2022/10/07 13:29:37;;;;;;;16.98;4.20;;;16.80;99.90;;;;;;5018861;28;20115;-63
2022/10/07 13:32:15;;;;;;;13.82;3.80;;;16.80;99.90;;;;;;5033071;28;20069;-62
2022/10/07 13:34:44;;;;;;;14.77;4.60;;;16.90;99.90;;;;;;5014318;28;20459;-63
2022/10/07 13:37:33;;;;;;;16.05;4.35;;;16.80;99.90;;;;;;4987095;28;20057;-63
2022/10/07 13:40:19;;;;;;;14.45;3.17;;;16.80;99.90;;;;;;5040984;28;20466;-63
2022/10/07 13:42:57;;;;;;;13.38;3.47;;;16.80;99.90;;;;;;5056367;28;20692;-63
2022/10/07 13:45:24;;;;;;;11.45;3.25;;;16.80;99.90;;;;;;5065657;28;20520;-63
2022/10/07 13:47:50;;;;;;;16.67;4.20;;;16.80;99.90;;;;;;5053804;28;20221;-63
2022/10/07 13:50:26;;;;;;;13.50;3.22;;;16.80;99.90;;;;;;5064872;28;20079;-63
2022/10/07 13:52:54;;;;;;;15.20;2.97;;;16.90;99.90;;;;;;5038504;28;20133;-63
2022/10/07 13:55:32;;;;;;;12.40;2.92;;;16.90;99.90;;;;;;5045110;28;20106;-64
2022/10/07 13:58:03;;;;;;;15.82;3.55;;;16.80;99.90;;;;;;5046521;28;20391;-62
2022/10/07 14:00:41;;;;;;;12.55;3.08;;;16.70;99.90;;;;;;5033699;28;20450;-64
2022/10/07 14:03:17;;;;;;;15.30;4.25;;;16.80;99.90;;;;;;5056812;28;20048;-62
2022/10/07 14:05:51;;;;;;;12.93;2.92;;;16.80;99.90;;;;;;5043886;28;20045;-64
2022/10/07 14:08:20;;;;;;;13.95;2.95;;;16.70;99.90;;;;;;5046648;28;20045;-63
2022/10/07 14:11:19;;;;;;;13.77;4.00;;;16.70;99.90;;;;;;5043245;28;20138;-63
2022/10/07 14:13:45;;;;;;;11.98;3.50;;;16.70;99.90;;;;;;5050176;28;20056;-64
2022/10/07 14:16:21;;;;;;;11.85;3.13;;;16.70;99.90;;;;;;5064283;28;20064;-63
2022/10/07 14:18:47;;;;;;;13.20;3.50;;;16.60;99.90;;;;;;5046517;28;20068;-61
2022/10/07 14:21:17;;;;;;;12.90;3.15;;;16.70;99.90;;;;;;5048770;28;20151;-64
2022/10/07 14:23:48;;;;;;;13.55;3.08;;;16.70;99.90;;;;;;5042731;28;20415;-64
2022/10/07 14:26:16;;;;;;;12.07;2.25;;;16.60;99.90;;;;;;5043812;28;20052;-64
2022/10/07 14:28:43;;;;;;;13.25;2.80;;;16.60;99.90;;;;;;5042416;28;20057;-63
2022/10/07 14:37:02;;;;;;;10.05;2.30;;;16.50;99.90;;;;;;5062008;28;20075;-62
2022/10/07 14:39:48;;;;;;;9.15;2.40;;;16.40;99.90;;;;;;5052157;28;20052;-61
2022/10/07 14:42:24;;;;;;;10.73;2.88;;;16.30;99.90;;;;;;5075560;28;20452;-62
2022/10/07 14:44:53;;;;;;;10.15;2.40;;;16.30;99.90;;;;;;5074265;28;20500;-61
2022/10/07 14:47:27;;;;;;;14.65;3.35;;;16.20;99.90;;;;;;5063480;28;20045;-62
2022/10/07 14:49:55;;;;;;;11.15;3.40;;;16.10;99.90;;;;;;5062890;28;20483;-62
2022/10/07 14:52:29;;;;;;;13.27;3.92;;;16.20;99.90;;;;;;5071629;28;20048;-60
2022/10/07 14:55:02;;;;;;;11.63;2.95;;;16.10;99.90;;;;;;5069547;28;20052;-62
2022/10/07 14:57:28;;;;;;;14.57;3.40;;;16.10;99.90;;;;;;5063002;28;20056;-62
2022/10/07 14:59:54;;;;;;;12.73;3.50;;;16.00;99.90;;;;;;5063135;28;20056;-62
2022/10/07 15:02:21;;;;;;;13.10;3.53;;;16.00;99.90;;;;;;5044824;28;20089;-62
2022/10/07 15:04:48;;;;;;;14.70;3.25;;;16.00;99.90;;;;;;5079920;28;20076;-62
2022/10/07 15:07:15;;;;;;;16.92;3.22;;;16.00;99.90;;;;;;5044500;28;20410;-63
2022/10/07 15:09:43;;;;;;;13.30;3.42;;;15.90;99.90;;;;;;5048274;28;20063;-62
2022/10/07 15:12:11;;;;;;;13.48;2.97;;;15.90;99.90;;;;;;5060806;28;20055;-60
2022/10/07 15:14:37;;;;;;;13.93;3.90;;;15.80;99.90;;;;;;5061635;28;20474;-61
2022/10/07 15:17:04;;;;;;;13.77;3.85;;;15.80;99.90;;;;;;5041731;28;20125;-62
2022/10/07 15:19:34;;;;;;;16.92;3.08;;;15.70;99.90;;;;;;5066081;28;20052;-62
2022/10/07 15:22:01;;;;;;;10.30;2.85;;;15.70;99.90;;;;;;5082526;28;20047;-60
2022/10/07 15:24:29;;;;;;;11.82;3.38;;;15.70;99.90;;;;;;5051226;28;20048;-63
2022/10/07 15:26:55;;;;;;;13.85;3.45;;;15.60;99.90;;;;;;5072400;28;20048;-62
2022/10/07 15:29:21;;;;;;;15.65;3.45;;;15.60;99.90;;;;;;5051614;28;20060;-62
2022/10/07 15:31:48;;;;;;;14.25;3.13;;;15.60;99.90;;;;;;5061891;28;20037;-62
2022/10/07 15:34:15;;;;;;;16.83;3.08;;;15.60;99.90;;;;;;5044607;28;20048;-62
2022/10/07 15:36:42;;;;;;;12.30;2.88;;;15.60;99.90;;;;;;5062310;28;20570;-61